Fosterville, Tennessee
Current Conditions -  °F | °C
As of 11:15 PM on Tuesday 25 Nov 2014 (Local Time) from KSYI Reporting Station
Overcast Overcast  
Wind Chill: 34°   Ceiling: 11000
Heat Index: 39°   Visibility: 10mi
Dew Point: 30°   Wind: 8mph
Humidity: 70%   Direction: 20°NNE
Pressure: 30.15"   Gusts: 71mph
Location:  35.65°N, 86.4°W
Report Text: KSYI 260515Z AUTO 02007G62KT 10SM OVC110 04/M01 A3015 RMK
Loading
Personal Weather Stations






























Interactive Weather Map New forecast layout! Learn more

10-Day Weather Forecast

Advertisements
Track Severe Weather on mobile